Anniston Metropolitan Airport
KANB : now visible

Airfield :











YOU CAN JOIN US ON...

 
LOGIN :

Register | Disclaimer

   EN    FR    IT 

 









Legend :    VFR   Marginal VFR   IFR   Intensive IFR   Very Intensive IFR
Visi :
Ceiling :
>= 8 km
>= 3000ft
5 to 8 km
1000 to 3000 ft
1500m to 5 km
500 to 1000 ft
800 to 1500m
200 to 500 ft
< 800m
< 200 ft
Symbols :   Thunderstorms  Fog  Heavy snow  Heavy precipitations  Wind > 20 kt






- Airport Elevation : 612 ft
- IATA code : ANB


KANB - Anniston Metropolitan

CURRENT METAR :
  • 170053Z AUTO 00000KT 10SM CLR 27/21 A3002 RMK AO2 SLP155 T02720211

EXPIRED METARs :
  • 162353Z AUTO 24005KT 10SM CLR 30/21 A3001 RMK AO2 SLP150 60000 T03000206 10350 20300 51002
  • 162307Z AUTO 18005KT 10SM FEW075 33/21 A3001 RMK AO2 T03280206
  • 162253Z AUTO 15006KT 10SM VCTS FEW070 33/21 A3001 RMK AO2 LTG DSNT SW SLP149 T03280211
  • 162153Z AUTO 14003KT 10SM FEW110 33/21 A3000 RMK AO2 RAB41E53 SLP148 P0000 T03330211
  • 162053Z AUTO 13009KT 10SM CLR 34/20 A3000 RMK AO2 SLP147 T03440200 56016

TAF KANB
Valid from the 17 at 00:00 until the 18 at 00:00 UTC


162335Z 1700/1724 18005KT P6SM FEW070 SCT110
FM170200 VRB02KT P6SM FEW045 SCT250
FM171600 13006KT P6SM SCT040 SCT250
KZTL FIR / North America



MET'MAP, your aeronautical weather chart ! - Copyright ORBIFLY December 2007 - Disclaimer

ORBIFLY MET'MAP TEAM :

Programming & Development : Alexandra Zaïnal
Original concept : Baudouin d'Aumeries
Technical & hardware support : Manuel Goepfert
Assistance : Marc-Olivier Méhu




SOURCES & CREDITS :

   NOAA       Earth
Advisory